Time;durP1;ratioP1;P1;durP2;ratioP2;P2;SDS_P1;SDS_P2;PMS_P1;PMS_P2;Temp;Humidity;BMP_temperature;BMP_pressure;BME280_temperature;BME280_humidity;BME280_pressure;Samples;Min_cycle;Max_cycle;Signal;HPM_P1;HPM_P2
2022/01/24 00:01:37;;;;;;;40.60;15.15;;;;;;;-10.71;71.58;98993.55;1765730;81;21056;-73
2022/01/24 00:04:05;;;;;;;38.10;13.93;;;;;;;-10.70;71.69;99003.00;1763250;81;21016;-74
2022/01/24 00:06:33;;;;;;;36.93;15.05;;;;;;;-10.76;71.58;99000.51;1767813;81;21012;-75
2022/01/24 00:09:03;;;;;;;34.33;15.03;;;;;;;-10.81;71.75;99006.98;1683843;84;20946;-73
2022/01/24 00:17:00;;;;;;;25.43;10.65;;;;;;;-10.80;72.81;99027.09;1720025;83;21009;-74
2022/01/24 00:27:13;;;;;;;29.55;13.25;;;;;;;-10.98;74.60;99022.41;1708077;83;21550;-75
2022/01/24 00:29:40;;;;;;;35.28;11.78;;;;;;;-10.98;73.08;99019.85;1710572;83;20989;-75
2022/01/24 00:32:07;;;;;;;37.55;14.60;;;;;;;-10.99;72.95;99019.36;1706832;83;20997;-76
2022/01/24 00:34:34;;;;;;;34.60;13.13;;;;;;;-11.02;72.85;99031.55;1710297;83;21432;-75
2022/01/24 00:37:01;;;;;;;31.93;14.87;;;;;;;-11.03;73.16;99031.43;1705297;83;21013;-75
2022/01/24 00:39:29;;;;;;;35.92;14.18;;;;;;;-11.03;73.56;99036.55;1692184;85;21091;-75
2022/01/24 00:44:49;;;;;;;37.33;14.53;;;;;;;-11.04;73.51;99036.06;1692223;84;21041;-75
2022/01/24 00:55:00;;;;;;;28.98;13.22;;;;;;;-11.04;73.38;99034.78;1692369;85;21077;-75
2022/01/24 00:57:27;;;;;;;32.13;14.10;;;;;;;-11.00;73.44;99037.66;1692226;85;21044;-75
2022/01/24 00:59:53;;;;;;;31.60;12.85;;;;;;;-10.99;73.29;99046.24;1692147;85;21425;-76
2022/01/24 01:02:20;;;;;;;38.00;15.70;;;;;;;-11.04;72.98;99059.97;1692287;84;21009;-76
2022/01/24 01:07:32;;;;;;;41.55;15.38;;;;;;;-11.10;72.86;99060.81;1750861;81;20985;-76
2022/01/24 01:18:14;;;;;;;35.20;15.00;;;;;;;-11.18;73.28;99044.02;1761054;81;21020;-75
2022/01/24 01:20:51;;;;;;;35.05;14.15;;;;;;;-11.12;73.33;99047.02;1759245;81;21041;-75
2022/01/24 01:23:03;;;;;;;33.90;11.83;;;;;;;-11.12;73.29;99053.80;1747324;81;21049;-75
2022/01/24 01:25:29;;;;;;;36.45;13.60;;;;;;;-11.16;73.15;99048.48;1733055;83;20985;-75
2022/01/24 01:27:56;;;;;;;30.62;12.65;;;;;;;-11.18;73.04;99058.10;1745429;82;21438;-75
2022/01/24 01:30:34;;;;;;;26.48;12.45;;;;;;;-11.24;73.10;99055.06;1722121;83;21003;-75
2022/01/24 01:35:41;;;;;;;34.53;13.90;;;;;;;-11.22;73.65;99048.00;1687659;82;21037;-75
2022/01/24 01:38:23;;;;;;;24.40;10.93;;;;;;;-11.23;73.39;99043.67;1743081;82;21414;-75
2022/01/24 01:56:42;;;;;;;29.10;11.73;;;;;;;-11.54;73.54;99059.31;1761090;81;21032;-74
2022/01/24 01:59:09;;;;;;;27.70;11.97;;;;;;;-11.58;73.42;99055.64;1755597;81;21426;-74
2022/01/24 02:01:36;;;;;;;26.33;11.68;;;;;;;-11.65;73.63;99045.71;1732974;83;20988;-74
2022/01/24 02:04:05;;;;;;;24.98;11.12;;;;;;;-11.66;73.66;99065.27;1745017;82;21000;-74
2022/01/24 02:06:32;;;;;;;28.77;11.60;;;;;;;-11.70;73.68;99062.00;1722966;83;21021;-74
2022/01/24 02:09:07;;;;;;;25.02;10.72;;;;;;;-11.70;73.68;99062.00;1722852;83;21045;-75
2022/01/24 02:11:34;;;;;;;23.45;10.80;;;;;;;-11.73;73.93;99069.80;1737901;83;21450;-74
2022/01/24 02:14:11;;;;;;;24.23;11.33;;;;;;;-11.73;73.93;99069.80;1711455;83;21067;-75
2022/01/24 02:16:42;;;;;;;29.98;11.85;;;;;;;-11.67;74.04;99075.00;1735760;82;21093;-75
2022/01/24 02:19:18;;;;;;;24.43;11.63;;;;;;;-11.65;74.12;99075.12;1736088;82;21415;-75
2022/01/24 02:21:48;;;;;;;31.82;11.18;;;;;;;-11.76;73.87;99074.71;1736551;82;21478;-75
2022/01/24 02:24:15;;;;;;;25.82;10.72;;;;;;;-11.76;73.87;99074.71;1743300;81;21455;-74
2022/01/24 02:26:42;;;;;;;29.45;10.65;;;;;;;-11.76;74.26;99083.25;1767742;81;21267;-74
2022/01/24 02:29:17;;;;;;;28.67;11.97;;;;;;;-11.75;74.18;99087.99;1766469;81;20974;-75
2022/01/24 02:34:33;;;;;;;27.85;11.33;;;;;;;-11.68;74.05;99086.39;1694024;84;21057;-74
2022/01/24 02:37:05;;;;;;;25.68;10.40;;;;;;;-11.66;73.97;99088.29;1694067;85;21029;-74
2022/01/24 02:53:01;;;;;;;23.60;8.58;;;;;;;-11.97;73.84;99115.76;1738101;81;21462;-74
2022/01/24 02:55:27;;;;;;;22.25;9.68;;;;;;;-12.00;74.46;99099.77;1694248;85;20985;-74
2022/01/24 02:57:54;;;;;;;26.75;9.90;;;;;;;-11.99;74.15;99110.52;1745176;81;21059;-73
2022/01/24 03:00:20;;;;;;;20.17;9.08;;;;;;;-11.99;74.15;99110.52;1724670;82;21016;-74
2022/01/24 03:02:47;;;;;;;25.23;9.78;;;;;;;-12.02;74.22;99133.28;1723577;82;21016;-73
2022/01/24 03:05:13;;;;;;;23.60;9.08;;;;;;;-11.99;74.41;99135.18;1739838;82;21045;-75
2022/01/24 03:07:40;;;;;;;29.85;10.10;;;;;;;-12.01;74.50;99136.73;1766242;81;21093;-75
2022/01/24 03:10:24;;;;;;;21.65;9.05;;;;;;;-12.09;73.92;99130.66;1766310;81;21055;-75
2022/01/24 03:12:44;;;;;;;26.30;10.85;;;;;;;-12.16;73.72;99131.34;1765750;81;21023;-74
2022/01/24 03:15:11;;;;;;;24.57;10.03;;;;;;;-12.15;74.12;99134.02;1766007;81;21409;-74
2022/01/24 03:17:38;;;;;;;20.77;8.90;;;;;;;-12.08;73.98;99154.16;1778030;80;21016;-74
2022/01/24 03:20:07;;;;;;;27.40;9.33;;;;;;;-12.05;74.11;99157.75;1762404;81;21032;-74
2022/01/24 03:22:33;;;;;;;24.23;10.08;;;;;;;-12.11;73.74;99150.48;1762638;81;21418;-74
2022/01/24 03:25:00;;;;;;;27.37;11.18;;;;;;;-12.11;73.74;99150.48;1762761;81;20961;-74
2022/01/24 03:27:26;;;;;;;23.12;9.53;;;;;;;-12.24;73.47;99155.02;1762572;81;21040;-74
2022/01/24 03:29:52;;;;;;;20.35;8.93;;;;;;;-12.29;73.95;99162.33;1762789;81;20981;-74
2022/01/24 03:32:19;;;;;;;22.27;8.60;;;;;;;-12.29;73.95;99162.33;1756147;81;21040;-74
2022/01/24 03:34:45;;;;;;;22.60;9.28;;;;;;;-12.25;73.76;99157.94;1753666;81;20994;-74
2022/01/24 03:37:12;;;;;;;17.50;8.35;;;;;;;-12.24;73.73;99161.03;1742594;82;21015;-74
2022/01/24 03:39:38;;;;;;;20.75;9.55;;;;;;;-12.24;73.73;99161.03;1742632;82;21015;-74
2022/01/24 03:42:05;;;;;;;21.07;8.68;;;;;;;-12.25;73.62;99149.41;1742496;82;21030;-74
2022/01/24 03:44:32;;;;;;;19.52;7.95;;;;;;;-12.30;73.03;99149.02;1742558;82;21000;-74
2022/01/24 03:47:18;;;;;;;21.62;8.60;;;;;;;-12.37;73.26;99150.59;1742473;82;20990;-73
2022/01/24 03:49:45;;;;;;;19.67;8.83;;;;;;;-12.36;73.41;99165.15;1747623;81;21410;-74
2022/01/24 03:52:19;;;;;;;19.02;8.58;;;;;;;-12.34;73.67;99160.67;1742388;82;21036;-74
2022/01/24 03:54:48;;;;;;;23.75;9.98;;;;;;;-12.30;73.61;99163.48;1742447;82;21064;-74
2022/01/24 03:57:18;;;;;;;18.67;8.53;;;;;;;-12.33;73.59;99167.55;1742556;81;20985;-74
2022/01/24 03:59:45;;;;;;;21.60;9.55;;;;;;;-12.39;73.69;99170.00;1742354;82;21076;-74
2022/01/24 04:02:15;;;;;;;20.92;8.68;;;;;;;-12.35;73.89;99176.77;1742248;82;21001;-74
2022/01/24 04:04:42;;;;;;;17.65;7.55;;;;;;;-12.38;73.69;99176.92;1742424;82;21000;-74
2022/01/24 04:07:10;;;;;;;22.35;8.25;;;;;;;-12.42;73.61;99177.03;1759462;81;21059;-74
2022/01/24 04:09:39;;;;;;;16.57;7.47;;;;;;;-12.47;73.54;99166.84;1760397;81;21013;-74
2022/01/24 04:12:09;;;;;;;19.00;7.80;;;;;;;-12.50;73.59;99170.03;1759724;81;21453;-73
2022/01/24 04:17:22;;;;;;;19.62;8.43;;;;;;;-12.56;73.49;99187.80;1758010;81;21431;-73
2022/01/24 04:22:20;;;;;;;22.77;8.75;;;;;;;-12.67;73.14;99194.21;1742243;82;21028;-73
2022/01/24 04:24:47;;;;;;;18.73;9.13;;;;;;;-12.77;73.28;99185.30;1766663;81;21033;-73
2022/01/24 04:27:15;;;;;;;20.00;8.38;;;;;;;-12.75;73.52;99179.55;1797493;80;20992;-73
2022/01/24 04:29:43;;;;;;;21.55;8.63;;;;;;;-12.75;73.52;99179.55;1797417;80;20984;-73
2022/01/24 04:32:10;;;;;;;19.62;7.87;;;;;;;-12.65;73.50;99186.68;1797459;80;21016;-73
2022/01/24 04:34:37;;;;;;;17.35;8.10;;;;;;;-12.68;73.65;99181.34;1797510;80;21454;-73
2022/01/24 04:37:04;;;;;;;20.35;8.25;;;;;;;-12.62;73.47;99189.09;1797452;80;21008;-73
2022/01/24 04:39:30;;;;;;;23.50;8.75;;;;;;;-12.73;73.74;99174.20;1706164;83;21031;-74
2022/01/24 04:41:59;;;;;;;19.02;7.50;;;;;;;-12.66;73.85;99187.09;1742561;82;21415;-74
2022/01/24 04:47:15;;;;;;;22.73;8.48;;;;;;;-12.63;73.67;99192.83;1700563;84;21450;-73
2022/01/24 04:52:35;;;;;;;22.73;8.48;;;;;;;-12.64;73.44;99198.30;1745976;81;21031;-73
2022/01/24 04:54:54;;;;;;;19.55;8.18;;;;;;;-12.73;73.13;99196.27;1756336;81;21461;-73
2022/01/24 04:57:24;;;;;;;17.42;7.75;;;;;;;-12.80;73.32;99196.15;1762375;81;21052;-73
2022/01/24 04:59:55;;;;;;;16.27;7.37;;;;;;;-12.79;73.40;99208.14;1762607;81;21040;-75
2022/01/24 05:02:23;;;;;;;17.98;7.85;;;;;;;-12.78;73.72;99204.84;1765953;81;21037;-73
2022/01/24 05:04:52;;;;;;;17.82;7.60;;;;;;;-12.72;73.58;99212.09;1796352;80;20988;-74
2022/01/24 05:07:18;;;;;;;17.15;7.35;;;;;;;-12.68;73.72;99209.44;1762459;81;21012;-74
2022/01/24 05:12:28;;;;;;;15.68;6.33;;;;;;;-12.67;73.79;99212.09;1730801;83;21069;-76
2022/01/24 05:25:46;;;;;;;16.75;7.65;;;;;;;-12.85;72.66;99233.17;1690968;84;21078;-75
2022/01/24 05:28:12;;;;;;;16.30;7.20;;;;;;;-12.80;72.67;99236.13;1701882;84;21041;-75
2022/01/24 05:30:39;;;;;;;16.75;6.40;;;;;;;-12.81;72.58;99236.86;1701830;84;21408;-75
2022/01/24 05:33:05;;;;;;;13.55;6.55;;;;;;;-12.80;72.71;99229.74;1701890;84;21034;-75
2022/01/24 05:35:32;;;;;;;13.60;7.12;;;;;;;-12.81;72.64;99226.66;1701854;84;21022;-75
2022/01/24 05:37:59;;;;;;;19.12;8.00;;;;;;;-12.86;72.71;99234.85;1701919;84;21018;-74
2022/01/24 05:40:26;;;;;;;20.62;8.18;;;;;;;-12.85;72.92;99240.83;1701811;83;21083;-75
2022/01/24 05:42:52;;;;;;;18.70;6.67;;;;;;;-12.83;73.06;99242.24;1672313;86;21009;-75
2022/01/24 05:45:19;;;;;;;19.75;7.42;;;;;;;-12.79;73.07;99244.28;1701767;84;21071;-76
2022/01/24 05:47:45;;;;;;;15.90;7.70;;;;;;;-12.87;72.03;99255.14;1672151;86;21001;-76
2022/01/24 05:50:12;;;;;;;15.98;7.33;;;;;;;-13.10;71.31;99246.44;1701889;84;21021;-75
2022/01/24 05:52:38;;;;;;;17.60;7.25;;;;;;;-13.26;71.67;99252.81;1672217;86;21060;-75
2022/01/24 05:55:06;;;;;;;9.58;4.85;;;;;;;-13.27;72.03;99262.52;1718526;83;21053;-75
2022/01/24 05:57:32;;;;;;;17.92;7.95;;;;;;;-13.31;72.81;99274.86;1721162;83;21048;-74
2022/01/24 05:59:59;;;;;;;29.85;9.95;;;;;;;-13.25;72.62;99271.58;1721271;83;21025;-74
2022/01/24 06:02:26;;;;;;;28.87;9.35;;;;;;;-13.24;72.40;99269.53;1721215;83;21052;-74
2022/01/24 06:04:53;;;;;;;26.02;9.73;;;;;;;-13.28;71.90;99266.20;1721324;83;21077;-74
2022/01/24 06:07:20;;;;;;;35.40;12.05;;;;;;;-13.30;72.36;99275.00;1753304;82;21039;-74
2022/01/24 06:09:46;;;;;;;26.40;10.05;;;;;;;-13.27;72.52;99283.29;1755348;81;21390;-74
2022/01/24 06:12:13;;;;;;;30.37;12.15;;;;;;;-13.26;72.61;99279.59;1734903;83;20989;-74
2022/01/24 06:14:39;;;;;;;34.38;10.20;;;;;;;-13.24;72.62;99291.59;1747775;82;21045;-74
2022/01/24 06:17:06;;;;;;;22.50;9.38;;;;;;;-13.25;72.80;99291.98;1747924;82;21056;-74
2022/01/24 06:19:32;;;;;;;29.02;10.55;;;;;;;-13.17;73.17;99294.78;1747772;82;21044;-73
2022/01/24 06:21:59;;;;;;;20.33;9.27;;;;;;;-13.09;72.95;99303.48;1747737;82;21418;-74
2022/01/24 06:24:25;;;;;;;26.15;9.98;;;;;;;-13.08;72.84;99310.38;1748057;82;21068;-75
2022/01/24 06:26:52;;;;;;;23.83;9.53;;;;;;;-13.05;72.94;99300.04;1754818;81;21418;-74
2022/01/24 06:29:18;;;;;;;21.25;9.10;;;;;;;-12.99;72.93;99298.00;1778432;81;21021;-75
2022/01/24 06:31:45;;;;;;;26.17;10.28;;;;;;;-12.95;72.93;99300.81;1735257;83;21056;-74
2022/01/24 06:34:11;;;;;;;22.87;9.60;;;;;;;-12.94;72.89;99308.61;1778524;81;20996;-74
2022/01/24 06:36:38;;;;;;;19.32;8.60;;;;;;;-12.91;73.00;99308.88;1778459;81;21001;-74
2022/01/24 06:39:06;;;;;;;21.97;8.95;;;;;;;-12.90;72.82;99304.66;1778417;81;20989;-74
2022/01/24 06:41:35;;;;;;;22.73;10.25;;;;;;;-12.85;73.04;99304.66;1729275;83;21426;-75
2022/01/24 06:44:03;;;;;;;21.17;8.78;;;;;;;-12.78;73.24;99291.66;1705864;84;21076;-73
2022/01/24 06:46:30;;;;;;;21.42;8.45;;;;;;;-12.78;73.24;99291.66;1705772;84;21485;-76
2022/01/24 06:48:56;;;;;;;17.40;8.90;;;;;;;-12.68;73.04;99308.62;1705811;84;21043;-75
2022/01/24 06:51:24;;;;;;;22.95;9.28;;;;;;;-12.64;72.87;99314.50;1705777;84;21020;-75
2022/01/24 06:53:51;;;;;;;22.22;8.95;;;;;;;-12.64;72.74;99316.14;1747773;82;21064;-75
2022/01/24 06:56:18;;;;;;;19.25;7.95;;;;;;;-12.58;72.79;99313.22;1705825;83;21075;-75
2022/01/24 06:58:44;;;;;;;20.70;7.80;;;;;;;-12.53;72.82;99316.67;1748042;82;21031;-75
2022/01/24 07:01:11;;;;;;;19.30;8.55;;;;;;;-12.43;72.87;99324.70;1706084;84;21393;-75
2022/01/24 07:03:38;;;;;;;16.40;7.83;;;;;;;-12.41;71.85;99324.83;1747654;82;21021;-75
2022/01/24 07:06:04;;;;;;;26.82;8.85;;;;;;;-12.37;72.23;99326.88;1704960;83;20984;-75
2022/01/24 07:08:31;;;;;;;23.15;10.08;;;;;;;-12.38;72.27;99329.80;1703474;84;21492;-75
2022/01/24 07:10:57;;;;;;;24.02;9.63;;;;;;;-12.35;72.44;99331.34;1703229;84;21016;-75
2022/01/24 07:13:23;;;;;;;22.82;8.38;;;;;;;-12.27;71.93;99340.92;1713905;83;20985;-75
2022/01/24 07:15:55;;;;;;;20.62;9.03;;;;;;;-12.27;71.93;99340.92;1732560;82;20988;-76
2022/01/24 07:21:01;;;;;;;23.20;10.72;;;;;;;-12.33;71.67;99338.73;1732511;82;21430;-76
2022/01/24 07:23:27;;;;;;;30.20;11.80;;;;;;;-12.28;71.49;99335.67;1732475;83;21004;-75
2022/01/24 07:25:54;;;;;;;24.65;10.85;;;;;;;-12.37;70.95;99337.97;1732451;82;20965;-76
2022/01/24 07:28:21;;;;;;;28.70;12.15;;;;;;;-12.36;71.06;99338.87;1719759;82;21039;-76
2022/01/24 07:30:48;;;;;;;32.48;12.98;;;;;;;-12.36;71.17;99335.95;1703482;84;20984;-75
2022/01/24 07:33:16;;;;;;;33.60;13.15;;;;;;;-12.39;70.79;99342.44;1703247;84;21024;-75
2022/01/24 07:35:45;;;;;;;37.58;13.90;;;;;;;-12.41;70.40;99344.90;1703409;84;20977;-75
2022/01/24 07:38:12;;;;;;;38.92;14.80;;;;;;;-12.38;71.01;99348.97;1703401;84;21044;-75
2022/01/24 07:40:42;;;;;;;47.30;17.82;;;;;;;-12.36;71.25;99332.13;1703284;84;21024;-75
2022/01/24 07:43:12;;;;;;;41.70;17.05;;;;;;;-12.33;71.42;99343.85;1715357;83;21000;-75
2022/01/24 07:45:42;;;;;;;44.20;17.62;;;;;;;-12.26;71.18;99344.38;1732644;82;21018;-75
2022/01/24 07:48:10;;;;;;;42.60;16.95;;;;;;;-12.39;70.92;99352.30;1732391;83;21040;-75
2022/01/24 07:50:40;;;;;;;37.80;14.03;;;;;;;-12.43;71.14;99354.08;1732403;82;21366;-75
2022/01/24 07:53:09;;;;;;;37.23;13.75;;;;;;;-12.38;71.50;99352.80;1732580;83;21011;-75
2022/01/24 07:55:36;;;;;;;32.63;15.28;;;;;;;-12.26;71.63;99344.38;1732471;82;21001;-75
2022/01/24 07:58:03;;;;;;;34.27;14.95;;;;;;;-12.15;71.69;99340.13;1717428;82;21016;-75
2022/01/24 08:00:30;;;;;;;36.40;15.60;;;;;;;-12.03;71.70;99338.92;1703332;84;21355;-75
2022/01/24 08:02:57;;;;;;;45.33;17.67;;;;;;;-11.86;71.75;99346.69;1703370;84;21048;-75
2022/01/24 08:05:25;;;;;;;44.73;17.62;;;;;;;-11.72;71.67;99352.53;1703585;83;21001;-75
2022/01/24 08:07:53;;;;;;;48.38;17.27;;;;;;;-11.66;70.53;99352.14;1739956;82;20997;-75
2022/01/24 08:10:20;;;;;;;38.23;16.30;;;;;;;-11.57;71.05;99360.56;1729557;83;21001;-75
2022/01/24 08:12:47;;;;;;;32.25;12.50;;;;;;;-11.45;70.39;99364.86;1729753;83;21052;-75
2022/01/24 08:15:14;;;;;;;29.95;14.93;;;;;;;-11.41;69.91;99369.05;1766736;80;21023;-76
2022/01/24 08:17:44;;;;;;;33.20;14.73;;;;;;;-11.32;69.95;99375.30;1766068;81;21076;-76
2022/01/24 08:20:13;;;;;;;37.30;15.05;;;;;;;-11.24;69.82;99373.72;1765958;81;21464;-77
2022/01/24 08:22:41;;;;;;;32.80;15.48;;;;;;;-11.19;69.62;99368.20;1765998;81;21469;-77
2022/01/24 08:25:10;;;;;;;32.67;14.60;;;;;;;-11.05;69.70;99373.11;1729604;83;21450;-74
2022/01/24 08:27:38;;;;;;;35.20;15.53;;;;;;;-10.91;70.00;99371.65;1729517;83;21083;-75
2022/01/24 08:30:12;;;;;;;33.00;14.75;;;;;;;-10.80;69.96;99378.86;1751022;81;20953;-75
2022/01/24 08:32:40;;;;;;;36.93;16.60;;;;;;;-10.70;69.15;99375.36;1762649;81;20996;-75
2022/01/24 08:35:09;;;;;;;46.28;16.05;;;;;;;-10.59;69.72;99377.47;1762519;81;20973;-76
2022/01/24 08:37:37;;;;;;;36.10;16.00;;;;;;;-10.48;69.10;99363.80;1762593;81;21067;-76
2022/01/24 08:40:07;;;;;;;35.58;15.43;;;;;;;-10.35;69.43;99369.42;1762609;81;21004;-75
2022/01/24 08:42:42;;;;;;;41.95;16.55;;;;;;;-10.27;69.19;99370.38;1762454;81;21000;-75
2022/01/24 08:47:37;;;;;;;35.75;15.55;;;;;;;-9.97;68.76;99371.78;1742248;82;21451;-76
2022/01/24 08:50:06;;;;;;;28.52;13.20;;;;;;;-9.82;69.26;99374.59;1742204;82;21013;-75
2022/01/24 08:52:33;;;;;;;32.58;14.55;;;;;;;-9.65;69.69;99376.63;1766062;81;21023;-74
2022/01/24 08:54:59;;;;;;;35.95;15.23;;;;;;;-9.50;69.67;99379.02;1766036;81;21042;-75
2022/01/24 08:57:26;;;;;;;46.75;17.52;;;;;;;-9.39;68.56;99387.47;1765879;81;21471;-74
2022/01/24 08:59:54;;;;;;;37.45;17.10;;;;;;;-9.29;69.33;99370.69;1784822;80;21008;-74
2022/01/24 09:02:23;;;;;;;37.98;16.60;;;;;;;-9.13;69.09;99388.84;1800509;80;21561;-75
2022/01/24 09:04:50;;;;;;;40.70;17.55;;;;;;;-9.05;67.11;99390.29;1799436;80;21042;-76
2022/01/24 09:07:19;;;;;;;41.92;17.12;;;;;;;-8.97;68.11;99385.28;1776590;78;20992;-77
2022/01/24 09:09:46;;;;;;;39.20;17.98;;;;;;;-8.86;68.66;99383.47;1759376;81;21004;-75
2022/01/24 09:12:13;;;;;;;38.73;17.20;;;;;;;-8.70;68.39;99390.97;1769044;81;20969;-75
2022/01/24 09:14:43;;;;;;;46.05;17.95;;;;;;;-8.56;68.09;99397.95;1760500;81;20961;-75
2022/01/24 09:17:11;;;;;;;42.78;19.27;;;;;;;-8.42;67.19;99387.70;1714936;82;22107;-76
2022/01/24 09:19:38;;;;;;;37.13;16.97;;;;;;;-8.30;67.77;99384.70;1701777;83;21052;-75
2022/01/24 09:22:05;;;;;;;36.45;18.85;;;;;;;-8.14;67.21;99395.59;1701744;84;21048;-75
2022/01/24 09:24:33;;;;;;;48.17;19.27;;;;;;;-8.02;67.23;99383.09;1712894;83;21061;-75
2022/01/24 09:27:00;;;;;;;47.08;20.32;;;;;;;-7.91;67.96;99382.48;1701759;84;21024;-74
2022/01/24 09:29:27;;;;;;;36.70;17.25;;;;;;;-7.82;65.88;99381.81;1730859;83;21447;-75
2022/01/24 09:31:55;;;;;;;38.55;17.35;;;;;;;-7.70;67.39;99380.45;1689333;83;21490;-76
2022/01/24 09:34:22;;;;;;;40.92;16.82;;;;;;;-7.56;65.86;99374.52;1692388;84;21518;-77
2022/01/24 09:36:50;;;;;;;35.25;16.87;;;;;;;-7.40;67.11;99363.91;1687551;84;21044;-75
2022/01/24 09:39:18;;;;;;;44.25;18.70;;;;;;;-7.30;65.45;99362.41;1687203;84;21013;-76
2022/01/24 09:41:46;;;;;;;36.42;16.45;;;;;;;-7.20;64.96;99357.46;1697509;84;21037;-76
2022/01/24 09:44:14;;;;;;;34.83;16.00;;;;;;;-7.10;65.91;99364.48;1712911;84;21376;-75
2022/01/24 09:46:41;;;;;;;28.47;13.45;;;;;;;-6.95;65.58;99359.00;1711730;84;21154;-76
2022/01/24 09:49:09;;;;;;;25.02;12.47;;;;;;;-6.81;66.11;99358.55;1696480;84;21005;-74
2022/01/24 09:51:38;;;;;;;20.20;9.53;;;;;;;-6.66;65.46;99350.88;1706509;83;21051;-73
2022/01/24 09:54:07;;;;;;;19.55;9.58;;;;;;;-6.52;63.67;99345.26;1701865;84;21014;-73
2022/01/24 09:56:38;;;;;;;23.22;10.23;;;;;;;-6.45;63.13;99348.23;1701908;84;21388;-73
2022/01/24 09:59:05;;;;;;;20.15;9.00;;;;;;;-6.37;62.56;99344.40;1700876;84;21058;-73
2022/01/24 10:01:33;;;;;;;22.30;10.08;;;;;;;-6.24;63.28;99342.14;1708463;83;21366;-73
2022/01/24 10:04:17;;;;;;;22.90;10.50;;;;;;;-6.14;63.67;99331.98;1711526;83;21472;-74
2022/01/24 10:07:18;;;;;;;20.48;9.15;;;;;;;-5.99;63.51;99335.42;1718638;82;20988;-73
2022/01/24 10:09:54;;;;;;;16.20;7.58;;;;;;;-5.89;61.38;99323.05;1761926;81;20985;-72
2022/01/24 10:17:49;;;;;;;26.50;10.93;;;;;;;-5.70;58.31;99322.00;1778324;81;21033;-74
2022/01/24 10:20:24;;;;;;;20.85;9.80;;;;;;;-5.57;60.51;99318.41;1775144;81;20988;-74
2022/01/24 10:23:15;;;;;;;11.65;6.40;;;;;;;-5.48;59.94;99319.75;1760341;81;21032;-75
2022/01/24 10:26:04;;;;;;;12.68;6.85;;;;;;;-5.43;56.33;99318.30;1752927;81;21040;-74
2022/01/24 10:28:37;;;;;;;11.05;6.62;;;;;;;-5.34;57.97;99326.57;1747798;82;21016;-73
2022/01/24 10:31:12;;;;;;;13.83;7.72;;;;;;;-5.31;52.03;99325.85;1747960;82;21021;-73
2022/01/24 10:34:06;;;;;;;19.20;9.18;;;;;;;-5.36;53.81;99321.70;1747954;82;21005;-74
2022/01/24 10:36:46;;;;;;;20.75;9.95;;;;;;;-5.22;55.39;99308.27;1747502;82;21060;-72
2022/01/24 10:39:28;;;;;;;21.75;9.75;;;;;;;-5.10;56.68;99300.69;1752850;81;21051;-72
2022/01/24 10:45:15;;;;;;;10.93;5.65;;;;;;;-4.87;52.07;99294.58;1765699;81;20989;-72
2022/01/24 10:47:47;;;;;;;12.73;5.55;;;;;;;-4.85;49.81;99291.66;1765725;81;21036;-73
2022/01/24 10:50:28;;;;;;;10.85;5.60;;;;;;;-4.74;52.82;99290.52;1765673;81;21001;-73
2022/01/24 10:52:58;;;;;;;10.82;5.22;;;;;;;-4.65;52.25;99289.70;1749676;81;21369;-74
2022/01/24 10:55:28;;;;;;;13.85;5.85;;;;;;;-4.49;55.02;99282.73;1758458;81;21001;-74
2022/01/24 10:58:09;;;;;;;15.55;7.12;;;;;;;-4.03;51.18;99280.71;1754890;81;21391;-73
2022/01/24 11:00:37;;;;;;;12.03;6.83;;;;;;;-2.87;54.22;99268.81;1756487;80;21020;-74
2022/01/24 11:03:06;;;;;;;21.80;10.82;;;;;;;-1.56;45.27;99268.65;1757813;81;21004;-74
2022/01/24 11:05:39;;;;;;;17.87;9.80;;;;;;;-0.83;42.54;99253.61;1755614;81;20977;-74
2022/01/24 11:08:09;;;;;;;16.55;9.43;;;;;;;0.09;41.44;99249.80;1757673;81;21057;-74
2022/01/24 11:10:47;;;;;;;23.47;12.40;;;;;;;0.96;39.06;99247.70;1745297;82;21037;-74
2022/01/24 11:13:18;;;;;;;20.12;10.78;;;;;;;1.15;36.09;99241.69;1745363;82;21001;-74
2022/01/24 11:15:54;;;;;;;17.48;9.73;;;;;;;2.16;40.26;99231.70;1745462;82;20986;-74
2022/01/24 11:18:15;;;;;;;23.30;11.55;;;;;;;2.50;33.33;99228.12;1765786;81;21024;-74
2022/01/24 11:20:46;;;;;;;18.77;10.48;;;;;;;3.32;39.34;99225.91;1745288;82;20997;-73
2022/01/24 11:23:20;;;;;;;16.40;10.50;;;;;;;4.04;37.54;99223.73;1746229;81;21020;-73
2022/01/24 11:25:44;;;;;;;20.43;10.50;;;;;;;4.59;32.00;99220.61;1760001;81;21371;-74
2022/01/24 11:28:11;;;;;;;14.93;9.25;;;;;;;5.10;30.54;99218.66;1761384;81;20996;-74
2022/01/24 11:30:55;;;;;;;17.25;9.15;;;;;;;5.72;35.04;99209.70;1763249;81;20949;-73
2022/01/24 11:33:38;;;;;;;14.23;8.13;;;;;;;5.87;33.33;99209.84;1763636;81;21008;-72
2022/01/24 11:36:08;;;;;;;12.85;8.60;;;;;;;6.47;32.01;99201.56;1762200;81;21193;-72
2022/01/24 11:38:45;;;;;;;14.98;8.55;;;;;;;6.86;28.78;99203.09;1763201;81;21055;-73
2022/01/24 11:41:25;;;;;;;14.68;8.83;;;;;;;7.37;32.21;99200.22;1765055;81;21420;-73
2022/01/24 11:43:56;;;;;;;12.43;8.20;;;;;;;7.76;33.40;99201.61;1760235;81;21037;-73
2022/01/24 11:46:48;;;;;;;14.87;8.73;;;;;;;8.39;32.23;99186.67;1772630;80;20994;-73
2022/01/24 11:49:19;;;;;;;14.65;8.90;;;;;;;8.45;27.77;99177.41;1757475;81;21537;-72
2022/01/24 11:51:50;;;;;;;15.60;9.10;;;;;;;8.77;27.09;99180.89;1743942;81;20977;-73
2022/01/24 11:57:47;;;;;;;12.65;8.85;;;;;;;9.10;25.99;99181.19;1775223;80;21032;-73
2022/01/24 12:00:27;;;;;;;14.63;9.03;;;;;;;9.33;29.45;99176.67;1754662;81;20958;-72
2022/01/24 12:03:01;;;;;;;15.40;9.23;;;;;;;9.47;27.58;99172.18;1757043;81;21418;-73
2022/01/24 12:05:44;;;;;;;14.60;7.95;;;;;;;8.46;25.35;99175.19;1755044;81;21403;-73
2022/01/24 12:08:15;;;;;;;15.90;9.00;;;;;;;8.56;26.31;99180.06;1747759;81;21036;-73
2022/01/24 12:10:46;;;;;;;14.45;8.70;;;;;;;8.65;28.07;99173.87;1747932;81;21045;-74
2022/01/24 12:13:31;;;;;;;12.63;7.95;;;;;;;8.76;27.54;99174.70;1763443;81;20965;-72
2022/01/24 12:16:06;;;;;;;12.75;7.78;;;;;;;8.76;26.54;99177.81;1775643;81;20977;-76
2022/01/24 12:18:38;;;;;;;14.03;7.92;;;;;;;8.10;22.23;99177.87;1769381;81;20997;-73
2022/01/24 12:21:14;;;;;;;10.60;7.08;;;;;;;8.54;25.88;99185.34;1746647;81;21547;-71
2022/01/24 12:23:48;;;;;;;11.75;7.60;;;;;;;8.96;26.41;99193.16;1726278;81;21000;-71
2022/01/24 12:26:20;;;;;;;11.10;7.53;;;;;;;8.69;25.70;99192.80;1755385;81;21008;-71
2022/01/24 12:28:52;;;;;;;13.15;7.87;;;;;;;8.32;25.37;99195.89;1745258;82;21024;-72
2022/01/24 12:31:35;;;;;;;11.73;6.83;;;;;;;7.34;26.74;99199.77;1757273;81;21094;-71
2022/01/24 12:34:16;;;;;;;12.78;7.97;;;;;;;6.76;26.47;99197.78;1763019;81;21019;-72
2022/01/24 12:36:50;;;;;;;12.18;7.87;;;;;;;6.44;27.25;99201.98;1763182;81;21437;-72
2022/01/24 12:39:24;;;;;;;10.40;6.62;;;;;;;5.74;24.56;99198.75;1763175;81;21051;-72
2022/01/24 12:41:59;;;;;;;;;;;;;;;5.19;24.97;99194.23;1765822;81;21432;-72
2022/01/24 12:47:18;;;;;;;15.50;8.63;;;;;;;4.31;27.93;99199.19;1669438;86;21029;-72
2022/01/24 12:49:50;;;;;;;23.85;9.45;;;;;;;3.68;28.56;99194.68;1669611;85;21044;-72
2022/01/24 12:52:23;;;;;;;18.05;9.60;;;;;;;2.85;30.34;99202.28;1669395;85;21092;-72
2022/01/24 12:54:55;;;;;;;15.85;9.50;;;;;;;1.52;30.27;99200.02;1669535;85;21020;-72
2022/01/24 12:57:29;;;;;;;17.87;9.23;;;;;;;1.30;32.19;99215.13;1677359;84;21053;-71
2022/01/24 13:00:01;;;;;;;16.23;8.78;;;;;;;0.85;32.90;99222.58;1683711;84;21028;-73
2022/01/24 13:02:31;;;;;;;20.60;9.18;;;;;;;0.37;33.36;99221.11;1662196;86;21028;-72
2022/01/24 13:05:08;;;;;;;17.23;8.53;;;;;;;0.06;34.02;99221.45;1684623;85;21053;-73
2022/01/24 13:07:39;;;;;;;18.67;9.13;;;;;;;-0.14;34.43;99216.47;1689257;84;21514;-72
2022/01/24 13:10:13;;;;;;;14.65;8.18;;;;;;;0.09;35.03;99216.34;1689455;85;21060;-72
2022/01/24 13:12:41;;;;;;;14.58;8.13;;;;;;;0.04;35.13;99225.30;1689710;85;21049;-73
2022/01/24 13:15:23;;;;;;;18.27;9.10;;;;;;;0.15;35.47;99220.45;1689492;85;21025;-73
2022/01/24 13:20:43;;;;;;;19.02;7.75;;;;;;;0.06;34.97;99227.56;1689658;85;21003;-72
2022/01/24 13:25:30;;;;;;;18.27;8.63;;;;;;;-0.96;35.61;99234.92;1689552;85;21099;-72
2022/01/24 13:28:18;;;;;;;17.90;7.37;;;;;;;-1.12;37.16;99243.00;1689688;85;21125;-73
2022/01/24 13:30:57;;;;;;;18.85;8.65;;;;;;;-1.36;37.14;99242.54;1687233;85;21018;-72